createdAt,value
2017-10-23T00:02:35.296Z,13.95
2017-10-23T00:17:34.495Z,13.65
2017-10-23T00:32:35.910Z,13.43
2017-10-23T00:47:34.931Z,13.28
2017-10-23T01:02:34.913Z,13.17
2017-10-23T01:17:36.892Z,12.87
2017-10-23T01:32:34.279Z,12.77
2017-10-23T01:47:35.213Z,12.86
2017-10-23T02:02:36.648Z,12.90
2017-10-23T02:17:35.148Z,12.74
2017-10-23T02:32:34.588Z,12.56
2017-10-23T02:47:36.538Z,12.40
2017-10-23T03:02:36.511Z,12.21
2017-10-23T03:17:34.462Z,12.12
2017-10-23T03:32:38.657Z,12.11
2017-10-23T03:47:34.308Z,12.36
2017-10-23T04:02:36.275Z,12.53
2017-10-23T04:17:35.298Z,12.60
2017-10-23T04:32:35.140Z,12.60
2017-10-23T04:47:35.135Z,11.90
2017-10-23T05:02:37.107Z,11.88
2017-10-23T05:17:36.024Z,12.00
2017-10-23T05:32:34.442Z,11.85
2017-10-23T05:47:35.457Z,12.09
2017-10-23T06:02:34.322Z,12.21
2017-10-23T06:17:34.291Z,12.00
2017-10-23T06:32:36.727Z,12.17
2017-10-23T06:47:34.662Z,12.35
2017-10-23T07:02:34.723Z,12.48
2017-10-23T07:17:34.577Z,12.49
2017-10-23T07:32:37.011Z,12.53
2017-10-23T07:47:35.069Z,12.36
2017-10-23T08:02:36.929Z,12.35
2017-10-23T08:17:34.334Z,12.74
2017-10-23T08:32:34.294Z,13.16
2017-10-23T08:47:35.215Z,13.41
2017-10-23T09:02:36.190Z,13.39
2017-10-23T09:17:35.135Z,13.75
2017-10-23T09:32:35.105Z,13.85
2017-10-23T09:47:34.531Z,13.57
2017-10-23T10:02:35.438Z,13.65
2017-10-23T10:17:34.453Z,13.68
2017-10-23T10:32:34.846Z,13.52
2017-10-23T10:47:36.849Z,13.69
2017-10-23T11:02:34.759Z,14.24
2017-10-23T11:17:34.749Z,14.07
2017-10-23T11:32:34.614Z,14.09
2017-10-23T11:47:35.953Z,13.89
2017-10-23T12:02:34.560Z,13.51
2017-10-23T12:17:34.985Z,13.30
2017-10-23T12:32:36.434Z,12.99
2017-10-23T12:47:34.310Z,13.07
2017-10-23T13:02:34.469Z,13.29
2017-10-23T13:17:34.198Z,13.45
2017-10-23T13:32:37.401Z,13.49
2017-10-23T13:47:34.822Z,12.79
2017-10-23T14:02:35.648Z,12.36
2017-10-23T14:17:34.533Z,12.16
2017-10-23T14:32:34.980Z,12.04
2017-10-23T14:47:34.969Z,12.24
2017-10-23T15:02:37.030Z,12.47
2017-10-23T15:17:41.412Z,12.77
2017-10-23T15:32:34.202Z,12.98
2017-10-23T15:47:35.186Z,12.84
2017-10-23T16:02:37.153Z,12.41
2017-10-23T16:17:35.113Z,12.27
2017-10-23T16:32:34.516Z,12.52
2017-10-23T16:47:34.537Z,12.77
2017-10-23T17:02:36.434Z,12.90
2017-10-23T17:17:34.517Z,12.91
2017-10-23T17:32:37.893Z,12.72
2017-10-23T17:47:34.869Z,12.51
2017-10-23T18:02:44.407Z,12.33
2017-10-23T18:17:38.440Z,12.22
2017-10-23T18:32:45.424Z,12.18
2017-10-23T18:47:41.057Z,12.09
2017-10-23T19:02:37.125Z,12.00
2017-10-23T19:17:36.993Z,11.90
2017-10-23T19:32:36.486Z,11.77
2017-10-23T19:47:37.646Z,11.70
2017-10-23T20:02:36.533Z,11.68
2017-10-23T20:17:39.399Z,11.61
2017-10-23T20:32:34.813Z,11.54
2017-10-23T20:47:34.690Z,11.37
2017-10-23T21:02:36.673Z,11.11
2017-10-23T21:17:37.305Z,10.80
2017-10-23T21:32:35.059Z,10.50
2017-10-23T21:47:34.989Z,10.25
2017-10-23T22:02:34.950Z,10.11
2017-10-23T22:17:34.865Z,9.93
2017-10-23T22:32:37.367Z,9.78
2017-10-23T22:47:36.264Z,9.67
2017-10-23T23:02:33.773Z,9.57
2017-10-23T23:17:34.200Z,9.46
2017-10-23T23:32:36.609Z,9.41
2017-10-23T23:47:36.565Z,9.37
